Time;durP1;ratioP1;P1;durP2;ratioP2;P2;SDS_P1;SDS_P2;PMS_P1;PMS_P2;Temp;Humidity;BMP_temperature;BMP_pressure;BME280_temperature;BME280_humidity;BME280_pressure;Samples;Min_cycle;Max_cycle;Signal;HPM_P1;HPM_P2
2021/12/03 00:02:20;;;;;;;4.90;1.33;;;;;;;;;;5088978;28;20070;-76
2021/12/03 00:04:46;;;;;;;9.63;3.20;;;;;;;;;;5080952;28;20127;-76
2021/12/03 00:07:12;;;;;;;6.70;2.13;;;;;;;;;;5084780;28;20020;-77
2021/12/03 00:09:38;;;;;;;7.60;1.70;;;;;;;;;;5083980;28;20040;-76
2021/12/03 00:12:04;;;;;;;7.38;1.77;;;;;;;;;;5089240;28;20106;-75
2021/12/03 00:14:30;;;;;;;6.25;1.73;;;;;;;;;;5084474;28;20035;-76
2021/12/03 00:16:56;;;;;;;19.98;6.85;;;;;;;;;;5080795;28;20103;-76
2021/12/03 00:19:23;;;;;;;15.55;4.25;;;;;;;;;;5083109;28;20111;-76
2021/12/03 00:21:49;;;;;;;12.52;4.43;;;;;;;;;;5087105;28;20071;-76
2021/12/03 00:24:15;;;;;;;13.23;3.30;;;;;;;;;;5080783;28;20032;-76
2021/12/03 00:26:42;;;;;;;10.75;2.55;;;;;;;;;;5085787;28;20059;-76
2021/12/03 00:29:08;;;;;;;8.52;1.42;;;;;;;;;;5087808;28;20040;-76
2021/12/03 00:31:34;;;;;;;12.98;3.17;;;;;;;;;;5086236;28;20035;-76
2021/12/03 00:34:00;;;;;;;24.95;6.78;;;;;;;;;;5086686;28;20085;-77
2021/12/03 00:36:28;;;;;;;6.88;2.55;;;;;;;;;;5084780;28;20099;-77
2021/12/03 00:38:57;;;;;;;17.38;3.42;;;;;;;;;;5087866;28;20020;-77
2021/12/03 00:41:23;;;;;;;15.60;3.42;;;;;;;;;;5082650;28;20520;-78
2021/12/03 00:43:52;;;;;;;10.23;3.30;;;;;;;;;;5075998;28;20102;-77
2021/12/03 00:46:19;;;;;;;12.00;3.40;;;;;;;;;;5077206;28;20485;-77
2021/12/03 00:48:46;;;;;;;15.18;3.90;;;;;;;;;;5080090;28;20052;-77
2021/12/03 00:51:12;;;;;;;16.15;3.83;;;;;;;;;;5081243;28;20102;-77
2021/12/03 00:53:39;;;;;;;20.48;5.07;;;;;;;;;;5080609;28;20123;-77
2021/12/03 00:56:06;;;;;;;14.07;4.97;;;;;;;;;;5088357;28;20054;-77
2021/12/03 00:58:32;;;;;;;16.60;4.25;;;;;;;;;;5074173;28;20024;-77
2021/12/03 01:00:58;;;;;;;12.98;3.53;;;;;;;;;;5081992;28;20044;-77
2021/12/03 01:03:24;;;;;;;11.80;3.38;;;;;;;;;;5086592;28;20032;-78
2021/12/03 01:05:51;;;;;;;11.13;2.20;;;;;;;;;;5082778;28;20156;-76
2021/12/03 01:08:17;;;;;;;6.18;1.85;;;;;;;;;;5088834;28;20047;-76
2021/12/03 01:10:43;;;;;;;5.25;1.73;;;;;;;;;;5081216;28;20032;-76
2021/12/03 01:13:09;;;;;;;19.98;2.95;;;;;;;;;;5088972;28;20032;-76
2021/12/03 01:15:37;;;;;;;12.95;2.60;;;;;;;;;;5083449;28;20371;-76
2021/12/03 01:18:04;;;;;;;11.57;2.83;;;;;;;;;;5085076;28;20406;-77
2021/12/03 01:20:31;;;;;;;9.63;2.10;;;;;;;;;;5085446;28;20032;-76
2021/12/03 01:22:57;;;;;;;3.83;1.20;;;;;;;;;;5071151;28;20032;-76
2021/12/03 01:25:23;;;;;;;8.50;2.30;;;;;;;;;;5080748;28;20165;-76
2021/12/03 01:27:50;;;;;;;7.45;2.13;;;;;;;;;;5092015;28;20036;-76
2021/12/03 01:30:17;;;;;;;5.32;1.23;;;;;;;;;;5082918;28;20048;-76
2021/12/03 01:32:44;;;;;;;7.75;1.42;;;;;;;;;;5084168;28;20102;-76
2021/12/03 01:35:10;;;;;;;9.07;1.65;;;;;;;;;;5084978;28;20028;-76
2021/12/03 01:37:36;;;;;;;3.38;1.02;;;;;;;;;;5082438;28;20029;-76
2021/12/03 01:40:04;;;;;;;3.25;1.20;;;;;;;;;;5069065;28;20051;-76
2021/12/03 01:42:30;;;;;;;5.38;1.27;;;;;;;;;;5088504;28;20487;-75
2021/12/03 01:44:56;;;;;;;7.25;1.73;;;;;;;;;;5083776;28;20119;-76
2021/12/03 01:47:22;;;;;;;4.05;1.25;;;;;;;;;;5086688;28;20034;-75
2021/12/03 01:49:48;;;;;;;8.05;1.98;;;;;;;;;;5084163;28;20040;-76
2021/12/03 01:52:14;;;;;;;3.88;1.13;;;;;;;;;;5087102;28;20111;-75
2021/12/03 01:54:40;;;;;;;5.82;1.40;;;;;;;;;;5086001;28;20046;-76
2021/12/03 01:57:06;;;;;;;4.90;1.35;;;;;;;;;;5093469;28;20062;-76
2021/12/03 01:59:32;;;;;;;4.10;1.30;;;;;;;;;;5085291;28;20027;-76
2021/12/03 02:01:59;;;;;;;3.92;1.02;;;;;;;;;;5091024;28;20115;-76
2021/12/03 02:04:25;;;;;;;3.33;1.00;;;;;;;;;;5087892;28;20032;-76
2021/12/03 02:06:51;;;;;;;1.95;1.02;;;;;;;;;;5084287;28;20081;-76
2021/12/03 02:09:17;;;;;;;6.25;1.25;;;;;;;;;;5087606;28;20489;-77
2021/12/03 02:11:43;;;;;;;2.60;1.45;;;;;;;;;;5084612;28;20604;-75
2021/12/03 02:14:09;;;;;;;2.63;1.20;;;;;;;;;;5086945;28;20039;-76
2021/12/03 02:16:37;;;;;;;5.15;1.23;;;;;;;;;;5083602;28;20077;-76
2021/12/03 02:19:04;;;;;;;5.25;1.50;;;;;;;;;;5064253;28;20132;-76
2021/12/03 02:21:30;;;;;;;5.68;1.75;;;;;;;;;;5041598;28;20036;-77
2021/12/03 02:23:56;;;;;;;10.52;1.70;;;;;;;;;;5044941;28;20044;-77
2021/12/03 02:26:22;;;;;;;9.35;2.13;;;;;;;;;;5055608;28;20041;-76
2021/12/03 02:28:49;;;;;;;9.02;1.77;;;;;;;;;;5039136;28;20048;-76
2021/12/03 02:31:16;;;;;;;8.73;1.70;;;;;;;;;;5038712;28;20047;-76
2021/12/03 02:33:43;;;;;;;9.07;2.33;;;;;;;;;;5052670;28;20041;-76
2021/12/03 02:36:10;;;;;;;9.80;1.60;;;;;;;;;;5046724;28;20093;-76
2021/12/03 02:38:36;;;;;;;5.45;1.83;;;;;;;;;;5047760;28;20073;-76
2021/12/03 02:41:02;;;;;;;6.85;2.22;;;;;;;;;;5043687;28;20025;-76
2021/12/03 02:43:29;;;;;;;12.35;1.80;;;;;;;;;;5031054;28;20537;-75
2021/12/03 02:45:57;;;;;;;6.25;1.98;;;;;;;;;;5048587;28;20076;-76
2021/12/03 02:48:24;;;;;;;11.48;2.33;;;;;;;;;;5048683;28;20022;-77
2021/12/03 02:50:50;;;;;;;9.48;2.38;;;;;;;;;;5047039;28;20410;-77
2021/12/03 02:53:16;;;;;;;9.13;2.55;;;;;;;;;;5041825;28;20037;-77
2021/12/03 02:55:42;;;;;;;53.30;4.05;;;;;;;;;;5053330;28;20033;-77
2021/12/03 02:58:09;;;;;;;17.15;5.35;;;;;;;;;;5051243;28;20044;-76
2021/12/03 03:00:35;;;;;;;11.38;3.45;;;;;;;;;;5049918;28;20025;-76
2021/12/03 03:03:01;;;;;;;13.02;2.97;;;;;;;;;;5047487;28;20111;-77
2021/12/03 03:05:27;;;;;;;9.40;3.60;;;;;;;;;;5041531;28;20547;-77
2021/12/03 03:07:54;;;;;;;17.77;3.75;;;;;;;;;;5043384;28;20041;-77
2021/12/03 03:10:24;;;;;;;16.13;3.88;;;;;;;;;;5051164;28;20029;-76
2021/12/03 03:12:50;;;;;;;7.40;3.85;;;;;;;;;;5048053;28;20021;-76
2021/12/03 03:15:16;;;;;;;7.40;4.10;;;;;;;;;;5050300;28;20029;-76
2021/12/03 03:17:43;;;;;;;7.75;4.85;;;;;;;;;;5057739;28;20072;-76
2021/12/03 03:20:10;;;;;;;11.50;6.05;;;;;;;;;;5063712;28;20031;-77
2021/12/03 03:22:39;;;;;;;15.57;7.50;;;;;;;;;;5074109;28;20421;-77
2021/12/03 03:25:07;;;;;;;17.48;7.85;;;;;;;;;;5065914;28;20052;-77
2021/12/03 03:27:34;;;;;;;19.92;10.32;;;;;;;;;;5070410;28;20052;-77
2021/12/03 03:30:00;;;;;;;29.00;12.73;;;;;;;;;;5067414;28;20024;-77
2021/12/03 03:32:27;;;;;;;19.65;13.25;;;;;;;;;;5062223;28;20147;-76
2021/12/03 03:34:53;;;;;;;27.42;12.73;;;;;;;;;;5066373;28;20047;-76
2021/12/03 03:37:19;;;;;;;21.58;14.23;;;;;;;;;;5064088;28;20460;-77
2021/12/03 03:39:46;;;;;;;25.50;15.02;;;;;;;;;;5067915;28;20032;-77
2021/12/03 03:42:12;;;;;;;20.67;14.68;;;;;;;;;;5064986;28;20036;-75
2021/12/03 03:44:39;;;;;;;29.50;16.52;;;;;;;;;;5059948;28;20036;-75
2021/12/03 03:47:06;;;;;;;24.05;16.45;;;;;;;;;;5066983;28;20033;-75
2021/12/03 03:49:32;;;;;;;30.20;16.85;;;;;;;;;;5076156;28;20032;-79
2021/12/03 03:51:59;;;;;;;25.73;17.45;;;;;;;;;;5065719;28;20573;-78
2021/12/03 03:54:25;;;;;;;30.52;17.40;;;;;;;;;;5070749;28;20090;-78
2021/12/03 03:56:51;;;;;;;26.25;16.75;;;;;;;;;;5061430;28;20979;-78
2021/12/03 03:59:17;;;;;;;28.60;18.20;;;;;;;;;;5056922;28;20067;-78
2021/12/03 04:01:44;;;;;;;28.70;17.77;;;;;;;;;;5046716;28;20021;-78
2021/12/03 04:04:11;;;;;;;38.35;19.02;;;;;;;;;;5068066;28;20040;-78
2021/12/03 04:06:39;;;;;;;28.38;18.45;;;;;;;;;;5059173;28;20035;-80
2021/12/03 04:09:06;;;;;;;97.38;21.33;;;;;;;;;;5060376;28;20037;-81
2021/12/03 04:11:32;;;;;;;55.55;30.35;;;;;;;;;;5063101;28;20175;-82
2021/12/03 04:13:58;;;;;;;34.88;18.48;;;;;;;;;;5055657;28;20063;-80
2021/12/03 04:16:24;;;;;;;30.45;18.52;;;;;;;;;;5060981;28;20104;-80
2021/12/03 04:18:50;;;;;;;29.48;17.27;;;;;;;;;;5056586;28;20037;-80
2021/12/03 04:21:16;;;;;;;27.08;16.73;;;;;;;;;;5063493;28;20107;-80
2021/12/03 04:23:43;;;;;;;27.58;17.15;;;;;;;;;;5062736;28;20036;-77
2021/12/03 04:26:09;;;;;;;26.13;16.65;;;;;;;;;;5064922;28;20086;-76
2021/12/03 04:28:35;;;;;;;26.70;17.45;;;;;;;;;;5067849;28;20102;-76
2021/12/03 04:31:01;;;;;;;25.10;16.23;;;;;;;;;;5063841;28;20040;-77
2021/12/03 04:33:27;;;;;;;28.83;16.88;;;;;;;;;;5062644;28;20040;-78
2021/12/03 04:35:53;;;;;;;26.67;15.57;;;;;;;;;;5065797;28;20120;-79
2021/12/03 04:38:19;;;;;;;22.30;15.20;;;;;;;;;;5064414;28;20025;-78
2021/12/03 04:40:45;;;;;;;24.27;15.52;;;;;;;;;;5062647;28;20025;-78
2021/12/03 04:43:11;;;;;;;25.38;15.45;;;;;;;;;;5065567;28;20354;-78
2021/12/03 04:45:38;;;;;;;27.52;16.00;;;;;;;;;;5054525;28;20108;-79
2021/12/03 04:48:05;;;;;;;26.10;15.05;;;;;;;;;;5064846;28;20480;-78
2021/12/03 04:50:32;;;;;;;29.42;15.80;;;;;;;;;;5058641;28;20531;-78
2021/12/03 04:52:58;;;;;;;20.00;14.88;;;;;;;;;;5066262;28;20573;-78
2021/12/03 04:55:26;;;;;;;25.20;15.60;;;;;;;;;;5060227;28;20037;-78
2021/12/03 04:57:53;;;;;;;30.65;15.60;;;;;;;;;;5063743;28;20028;-78
2021/12/03 05:00:21;;;;;;;29.60;15.48;;;;;;;;;;5066051;28;20116;-78
2021/12/03 05:02:49;;;;;;;24.42;15.23;;;;;;;;;;5063791;28;20033;-78
2021/12/03 05:05:15;;;;;;;19.02;14.10;;;;;;;;;;5058442;28;20036;-77
2021/12/03 05:07:53;;;;;;;21.75;14.52;;;;;;;;;;5068629;28;20037;-78
2021/12/03 05:10:20;;;;;;;23.35;14.50;;;;;;;;;;5063104;28;20055;-77
2021/12/03 05:12:46;;;;;;;22.35;15.27;;;;;;;;;;5076870;28;20107;-79
2021/12/03 05:15:12;;;;;;;24.60;14.30;;;;;;;;;;5065181;28;20636;-77
2021/12/03 05:17:38;;;;;;;21.15;13.88;;;;;;;;;;5047037;28;20039;-78
2021/12/03 05:20:04;;;;;;;17.90;13.98;;;;;;;;;;5066456;28;20056;-77
2021/12/03 05:22:30;;;;;;;28.33;15.93;;;;;;;;;;5061036;28;20033;-78
2021/12/03 05:24:56;;;;;;;41.53;23.42;;;;;;;;;;5067192;28;20403;-80
2021/12/03 05:27:22;;;;;;;24.65;12.75;;;;;;;;;;5057873;28;20033;-76
2021/12/03 05:29:49;;;;;;;27.50;13.57;;;;;;;;;;5066740;28;20037;-78
2021/12/03 05:32:15;;;;;;;23.00;14.30;;;;;;;;;;5064649;28;20032;-79
2021/12/03 05:34:41;;;;;;;22.75;14.40;;;;;;;;;;5073755;28;20032;-78
2021/12/03 05:37:08;;;;;;;19.42;13.98;;;;;;;;;;5067509;28;20063;-78
2021/12/03 05:39:35;;;;;;;20.00;13.60;;;;;;;;;;5064733;28;20090;-79
2021/12/03 05:42:01;;;;;;;22.83;13.43;;;;;;;;;;5066339;28;20604;-76
2021/12/03 05:44:29;;;;;;;24.80;13.63;;;;;;;;;;5062025;28;20059;-76
2021/12/03 05:46:55;;;;;;;20.02;13.65;;;;;;;;;;5069512;28;20506;-76
2021/12/03 05:49:21;;;;;;;24.77;15.45;;;;;;;;;;5070656;28;20037;-75
2021/12/03 05:51:47;;;;;;;26.75;14.57;;;;;;;;;;5058796;28;20403;-75
2021/12/03 05:54:13;;;;;;;22.25;13.43;;;;;;;;;;5071037;28;20033;-75
2021/12/03 05:56:39;;;;;;;19.80;14.48;;;;;;;;;;5068940;28;20055;-74
2021/12/03 05:59:05;;;;;;;26.20;15.40;;;;;;;;;;5061610;28;20489;-74
2021/12/03 06:01:31;;;;;;;20.10;13.63;;;;;;;;;;5062629;28;20040;-75
2021/12/03 06:03:57;;;;;;;19.13;13.75;;;;;;;;;;5067320;28;20079;-75
2021/12/03 06:06:24;;;;;;;22.00;14.38;;;;;;;;;;5088976;28;20032;-75
2021/12/03 06:08:50;;;;;;;23.27;16.00;;;;;;;;;;5068520;28;20085;-75
2021/12/03 06:11:16;;;;;;;27.35;15.55;;;;;;;;;;5071066;28;20107;-75
2021/12/03 06:13:42;;;;;;;25.30;14.95;;;;;;;;;;5062789;28;20043;-74
2021/12/03 06:16:09;;;;;;;26.70;16.08;;;;;;;;;;5069118;28;20033;-75
2021/12/03 06:18:36;;;;;;;26.33;15.60;;;;;;;;;;5066038;28;20064;-75
2021/12/03 06:21:02;;;;;;;21.13;14.52;;;;;;;;;;5057217;28;20040;-74
2021/12/03 06:23:29;;;;;;;22.85;14.75;;;;;;;;;;5067616;28;20033;-74
2021/12/03 06:25:55;;;;;;;28.35;14.73;;;;;;;;;;5078134;28;20082;-75
2021/12/03 06:28:21;;;;;;;22.63;15.82;;;;;;;;;;5069472;28;20032;-74
2021/12/03 06:30:47;;;;;;;28.70;14.10;;;;;;;;;;5052810;28;20148;-74
2021/12/03 06:33:13;;;;;;;24.90;15.75;;;;;;;;;;5064307;28;20036;-74
2021/12/03 06:35:39;;;;;;;19.73;12.25;;;;;;;;;;5058579;28;20387;-74
2021/12/03 06:38:05;;;;;;;25.73;14.48;;;;;;;;;;5077067;28;20039;-75
2021/12/03 06:40:31;;;;;;;29.92;13.75;;;;;;;;;;5069006;28;20058;-74
2021/12/03 06:42:57;;;;;;;23.80;12.60;;;;;;;;;;5080685;28;20036;-74
2021/12/03 06:45:24;;;;;;;20.25;11.50;;;;;;;;;;5069183;28;20098;-74
2021/12/03 06:47:50;;;;;;;19.73;11.80;;;;;;;;;;5068523;28;20017;-74
2021/12/03 06:50:19;;;;;;;26.85;11.27;;;;;;;;;;5062098;28;20545;-74
2021/12/03 06:52:49;;;;;;;26.17;11.25;;;;;;;;;;5084168;28;20558;-73
2021/12/03 06:55:15;;;;;;;17.98;9.85;;;;;;;;;;5062621;28;20085;-73
2021/12/03 06:57:45;;;;;;;19.13;9.65;;;;;;;;;;5061210;28;20478;-73
2021/12/03 07:00:12;;;;;;;15.57;7.35;;;;;;;;;;5067068;28;20033;-73
2021/12/03 07:02:38;;;;;;;14.10;6.63;;;;;;;;;;5069544;28;20585;-73
2021/12/03 07:05:04;;;;;;;17.05;6.85;;;;;;;;;;5063705;28;20082;-74
2021/12/03 07:07:31;;;;;;;9.43;6.22;;;;;;;;;;5056066;28;20037;-73
2021/12/03 07:09:57;;;;;;;11.30;4.82;;;;;;;;;;5070316;28;20036;-73
2021/12/03 07:12:23;;;;;;;20.08;4.97;;;;;;;;;;5078397;28;20032;-73
2021/12/03 07:14:49;;;;;;;10.00;4.65;;;;;;;;;;5073733;28;20119;-74
2021/12/03 07:17:15;;;;;;;13.15;4.75;;;;;;;;;;5071614;28;20036;-74
2021/12/03 07:19:41;;;;;;;9.57;4.72;;;;;;;;;;5074034;28;20044;-73
2021/12/03 07:22:07;;;;;;;8.25;4.25;;;;;;;;;;5050368;28;20028;-78
2021/12/03 07:24:34;;;;;;;9.77;4.82;;;;;;;;;;5065434;28;20032;-75
2021/12/03 07:27:00;;;;;;;9.10;4.55;;;;;;;;;;5062568;28;20039;-77
2021/12/03 07:29:26;;;;;;;16.75;5.80;;;;;;;;;;5064013;28;20120;-76
2021/12/03 07:31:52;;;;;;;12.60;4.32;;;;;;;;;;5064925;28;20036;-76
2021/12/03 07:34:18;;;;;;;9.63;4.88;;;;;;;;;;5053620;28;20036;-76
2021/12/03 07:36:44;;;;;;;13.45;4.45;;;;;;;;;;5066737;28;20039;-76
2021/12/03 07:39:10;;;;;;;14.05;5.13;;;;;;;;;;5063995;28;20111;-76
2021/12/03 07:41:40;;;;;;;14.32;5.38;;;;;;;;;;5065354;28;20025;-76
2021/12/03 07:44:06;;;;;;;11.70;4.78;;;;;;;;;;5069474;28;20044;-76
2021/12/03 07:46:32;;;;;;;10.85;4.13;;;;;;;;;;5066734;28;20041;-77
2021/12/03 07:48:58;;;;;;;12.23;4.78;;;;;;;;;;5069088;28;20103;-77
2021/12/03 07:51:26;;;;;;;10.55;4.72;;;;;;;;;;5051931;28;20442;-76
2021/12/03 07:53:52;;;;;;;12.77;4.53;;;;;;;;;;5076078;28;20475;-76
2021/12/03 07:56:21;;;;;;;15.63;5.43;;;;;;;;;;5060412;28;20084;-76
2021/12/03 07:58:47;;;;;;;7.20;3.53;;;;;;;;;;5059001;28;20029;-77
2021/12/03 08:01:13;;;;;;;12.18;4.78;;;;;;;;;;5065750;28;20060;-76
2021/12/03 08:03:39;;;;;;;11.55;3.60;;;;;;;;;;5059350;28;20023;-77
2021/12/03 08:06:09;;;;;;;9.65;4.25;;;;;;;;;;5069807;28;20036;-79
2021/12/03 08:08:39;;;;;;;35.40;14.60;;;;;;;;;;5067168;28;20031;-77
2021/12/03 08:11:06;;;;;;;8.15;4.72;;;;;;;;;;5057741;28;20686;-77
2021/12/03 08:13:33;;;;;;;6.32;4.10;;;;;;;;;;5059832;28;20083;-76
2021/12/03 08:16:00;;;;;;;10.90;3.28;;;;;;;;;;5055061;28;20024;-77
2021/12/03 08:18:26;;;;;;;6.45;3.40;;;;;;;;;;5070896;28;20042;-77
2021/12/03 08:20:53;;;;;;;9.95;4.50;;;;;;;;;;5077547;28;20032;-76
2021/12/03 08:23:19;;;;;;;11.63;3.40;;;;;;;;;;5045661;28;20032;-78
2021/12/03 08:25:45;;;;;;;13.52;3.78;;;;;;;;;;5063420;28;20094;-77
2021/12/03 08:28:11;;;;;;;8.65;3.80;;;;;;;;;;5068172;28;20033;-78
2021/12/03 08:30:37;;;;;;;9.13;2.97;;;;;;;;;;5063653;28;20033;-77
2021/12/03 08:33:03;;;;;;;7.47;3.50;;;;;;;;;;5067697;28;20138;-77
2021/12/03 08:35:30;;;;;;;10.02;2.97;;;;;;;;;;5065266;28;20111;-77
2021/12/03 08:37:57;;;;;;;8.65;2.90;;;;;;;;;;5067372;28;20032;-78
2021/12/03 08:40:24;;;;;;;12.05;4.45;;;;;;;;;;5065684;28;20082;-78
2021/12/03 08:42:50;;;;;;;14.88;3.88;;;;;;;;;;5070303;28;20124;-78
2021/12/03 08:45:17;;;;;;;17.88;4.30;;;;;;;;;;5061826;28;20025;-78
2021/12/03 08:47:46;;;;;;;14.57;4.00;;;;;;;;;;5059897;28;20052;-79
2021/12/03 08:50:16;;;;;;;24.35;8.38;;;;;;;;;;5062258;28;20028;-76
2021/12/03 08:52:53;;;;;;;22.73;4.72;;;;;;;;;;5061263;28;20032;-77
2021/12/03 08:55:19;;;;;;;13.95;4.53;;;;;;;;;;5062278;28;20389;-76
2021/12/03 08:57:45;;;;;;;14.65;5.38;;;;;;;;;;5056540;28;20081;-76
2021/12/03 09:00:19;;;;;;;11.75;5.13;;;;;;;;;;5064032;28;20063;-75
2021/12/03 09:02:45;;;;;;;18.38;5.28;;;;;;;;;;5071552;28;20040;-76
2021/12/03 09:05:12;;;;;;;20.50;6.15;;;;;;;;;;5066937;28;20036;-76
2021/12/03 09:07:38;;;;;;;17.80;6.53;;;;;;;;;;5075603;28;20029;-77
2021/12/03 09:10:10;;;;;;;15.30;6.85;;;;;;;;;;5070293;28;20036;-77
2021/12/03 09:12:37;;;;;;;11.80;5.90;;;;;;;;;;5070419;28;20025;-76
2021/12/03 09:15:05;;;;;;;22.02;6.43;;;;;;;;;;5053623;28;20060;-82
2021/12/03 09:22:50;;;;;;;11.18;7.00;;;;;;;;;;5068915;28;20354;-76
2021/12/03 09:25:21;;;;;;;17.77;7.90;;;;;;;;;;5071440;28;20485;-76
2021/12/03 09:27:47;;;;;;;26.15;7.35;;;;;;;;;;5061992;28;20025;-77
2021/12/03 09:30:14;;;;;;;27.95;7.22;;;;;;;;;;5047132;28;20453;-77
2021/12/03 09:32:42;;;;;;;14.23;6.18;;;;;;;;;;5070634;28;20470;-77
2021/12/03 09:35:09;;;;;;;19.77;6.60;;;;;;;;;;5070784;28;20040;-75
2021/12/03 09:37:36;;;;;;;21.77;7.40;;;;;;;;;;5063034;28;20057;-76
2021/12/03 09:40:06;;;;;;;22.75;6.70;;;;;;;;;;5059976;28;20033;-76
2021/12/03 09:42:35;;;;;;;15.98;5.90;;;;;;;;;;5064265;28;20083;-75
2021/12/03 09:45:02;;;;;;;18.63;5.85;;;;;;;;;;5068367;28;20047;-76
2021/12/03 09:47:28;;;;;;;21.10;7.18;;;;;;;;;;5045129;28;20396;-75
2021/12/03 09:49:56;;;;;;;24.90;7.32;;;;;;;;;;5063610;28;20066;-75
2021/12/03 09:52:34;;;;;;;22.52;6.65;;;;;;;;;;5071283;28;20028;-76
2021/12/03 09:55:02;;;;;;;22.88;7.03;;;;;;;;;;5064034;28;20073;-76
2021/12/03 09:57:41;;;;;;;33.75;7.47;;;;;;;;;;5062895;28;20458;-76
2021/12/03 10:03:02;;;;;;;26.98;7.38;;;;;;;;;;5066469;28;20080;-75
2021/12/03 10:18:55;;;;;;;16.48;4.53;;;;;;;;;;5041852;28;20072;-76
2021/12/03 10:22:10;;;;;;;16.15;4.13;;;;;;;;;;5080941;28;20024;-77
2021/12/03 10:30:22;;;;;;;17.35;4.53;;;;;;;;;;5061276;28;20050;-76
2021/12/03 10:44:01;;;;;;;19.05;4.18;;;;;;;;;;5068414;28;20344;-77
2021/12/03 10:52:48;;;;;;;12.45;3.53;;;;;;;;;;5073712;28;20032;-76
2021/12/03 11:50:54;;;;;;;8.82;2.92;;;;;;;;;;5039702;28;20044;-75
2021/12/03 12:12:31;;;;;;;8.20;2.85;;;;;;;;;;5039689;28;20029;-75
2021/12/03 12:37:06;;;;;;;14.13;3.22;;;;;;;;;;5024358;28;20164;-76
2021/12/03 12:42:43;;;;;;;9.90;3.53;;;;;;;;;;5056596;28;20090;-76
2021/12/03 12:46:19;;;;;;;10.95;3.70;;;;;;;;;;5063035;28;20107;-77
2021/12/03 12:57:26;;;;;;;11.13;4.55;;;;;;;;;;5072575;28;20056;-75
2021/12/03 13:15:47;;;;;;;9.68;2.90;;;;;;;;;;5061986;28;20552;-73
2021/12/03 13:32:40;;;;;;;17.20;3.78;;;;;;;;;;5049266;28;20612;-74
2021/12/03 13:38:47;;;;;;;9.80;3.17;;;;;;;;;;5041140;28;20041;-74
2021/12/03 14:46:01;;;;;;;10.90;3.47;;;;;;;;;;5041518;28;20029;-75
2021/12/03 14:48:36;;;;;;;9.05;2.97;;;;;;;;;;5040737;28;20079;-74
2021/12/03 14:56:03;;;;;;;13.93;4.45;;;;;;;;;;5032505;28;20156;-76
2021/12/03 14:58:38;;;;;;;12.43;4.10;;;;;;;;;;5044779;28;20396;-76
2021/12/03 15:01:19;;;;;;;11.63;3.50;;;;;;;;;;5027155;28;20040;-76
2021/12/03 15:06:39;;;;;;;9.70;4.93;;;;;;;;;;5047044;28;20043;-74
2021/12/03 15:19:43;;;;;;;9.02;4.18;;;;;;;;;;5032828;28;20068;-73
2021/12/03 15:27:33;;;;;;;9.00;3.83;;;;;;;;;;5055422;28;20029;-76
2021/12/03 15:32:41;;;;;;;8.85;5.55;;;;;;;;;;5049819;28;20116;-75
2021/12/03 15:35:14;;;;;;;7.68;5.53;;;;;;;;;;5038524;28;20044;-73
2021/12/03 16:04:34;;;;;;;10.13;7.75;;;;;;;;;;5048175;28;20164;-75
2021/12/03 16:12:33;;;;;;;12.07;8.68;;;;;;;;;;5049596;28;20049;-75
2021/12/03 16:47:48;;;;;;;13.82;11.15;;;;;;;;;;5047515;28;20099;-75
2021/12/03 16:50:43;;;;;;;11.85;9.55;;;;;;;;;;5043661;28;20029;-74
2021/12/03 16:53:17;;;;;;;11.30;10.00;;;;;;;;;;5044035;28;20041;-74
2021/12/03 16:55:53;;;;;;;13.07;11.00;;;;;;;;;;5048052;28;20033;-75
2021/12/03 16:58:19;;;;;;;13.00;10.93;;;;;;;;;;5042886;28;20056;-74
2021/12/03 17:00:54;;;;;;;15.38;11.75;;;;;;;;;;5039478;28;20456;-74
2021/12/03 17:03:32;;;;;;;20.98;14.35;;;;;;;;;;5038595;28;20039;-74
2021/12/03 17:12:04;;;;;;;17.33;13.35;;;;;;;;;;5050921;28;20416;-74
2021/12/03 17:14:25;;;;;;;17.52;11.50;;;;;;;;;;5048335;28;20064;-76
2021/12/03 17:26:41;;;;;;;16.88;12.88;;;;;;;;;;5061358;28;20038;-74
2021/12/03 17:49:35;;;;;;;19.08;16.42;;;;;;;;;;5061949;28;20040;-74
2021/12/03 17:57:07;;;;;;;16.05;14.20;;;;;;;;;;5081888;28;20051;-75
2021/12/03 17:59:44;;;;;;;20.17;15.75;;;;;;;;;;5069191;28;20032;-75
2021/12/03 18:05:00;;;;;;;19.42;15.45;;;;;;;;;;5072337;28;20032;-75
2021/12/03 18:15:49;;;;;;;19.88;17.02;;;;;;;;;;5057216;28;20039;-74
2021/12/03 18:56:14;;;;;;;25.55;20.75;;;;;;;;;;5068173;28;20036;-76
2021/12/03 18:58:40;;;;;;;28.13;20.80;;;;;;;;;;5067886;28;20039;-76
2021/12/03 19:01:06;;;;;;;29.25;22.08;;;;;;;;;;5059468;28;20037;-76
2021/12/03 19:03:53;;;;;;;29.73;22.55;;;;;;;;;;5061868;28;20064;-75
2021/12/03 19:06:26;;;;;;;34.55;23.73;;;;;;;;;;5061908;28;20060;-75
2021/12/03 19:09:15;;;;;;;31.08;23.05;;;;;;;;;;5074135;28;20024;-73
2021/12/03 19:11:53;;;;;;;32.88;23.38;;;;;;;;;;5062261;28;20413;-75
2021/12/03 19:14:21;;;;;;;31.05;23.55;;;;;;;;;;5061124;28;20068;-74
2021/12/03 19:16:47;;;;;;;29.85;23.35;;;;;;;;;;5058626;28;20048;-73
2021/12/03 19:19:15;;;;;;;34.20;25.60;;;;;;;;;;5053553;28;20562;-74
2021/12/03 19:21:43;;;;;;;32.08;25.08;;;;;;;;;;5062943;28;21042;-74
2021/12/03 19:24:10;;;;;;;30.70;24.33;;;;;;;;;;5070491;28;20052;-74
2021/12/03 19:26:42;;;;;;;34.78;25.02;;;;;;;;;;5064077;28;20036;-74
2021/12/03 19:29:09;;;;;;;33.80;25.35;;;;;;;;;;5056810;28;20422;-74
2021/12/03 19:31:35;;;;;;;35.20;26.02;;;;;;;;;;5063490;28;20057;-74
2021/12/03 19:34:01;;;;;;;36.47;26.90;;;;;;;;;;5058306;28;20056;-74
2021/12/03 19:36:27;;;;;;;33.45;26.73;;;;;;;;;;5061897;28;20041;-74
2021/12/03 19:38:55;;;;;;;35.80;25.83;;;;;;;;;;5042943;28;20036;-73
2021/12/03 19:41:30;;;;;;;38.85;24.77;;;;;;;;;;5056422;28;20382;-73
2021/12/03 19:43:57;;;;;;;34.05;26.00;;;;;;;;;;5056972;28;20043;-73
2021/12/03 19:46:45;;;;;;;39.25;28.40;;;;;;;;;;5058576;28;20479;-73
2021/12/03 19:49:16;;;;;;;38.90;28.33;;;;;;;;;;5060605;28;20045;-73
2021/12/03 19:51:47;;;;;;;35.67;27.73;;;;;;;;;;5057808;28;20552;-73
2021/12/03 19:54:13;;;;;;;43.67;30.00;;;;;;;;;;5066675;28;20060;-73
2021/12/03 19:56:40;;;;;;;32.63;25.58;;;;;;;;;;5069451;28;20032;-73
2021/12/03 19:59:07;;;;;;;35.45;25.27;;;;;;;;;;5063593;28;20096;-73
2021/12/03 20:01:34;;;;;;;36.00;26.77;;;;;;;;;;5049133;28;20040;-73
2021/12/03 20:04:00;;;;;;;35.75;25.77;;;;;;;;;;5065303;28;20371;-73
2021/12/03 20:06:26;;;;;;;39.60;27.38;;;;;;;;;;5067821;28;20603;-73
2021/12/03 20:08:58;;;;;;;39.08;28.55;;;;;;;;;;5059761;28;20027;-73
2021/12/03 20:11:27;;;;;;;34.53;26.38;;;;;;;;;;5070223;28;20104;-74
2021/12/03 20:13:58;;;;;;;36.30;27.00;;;;;;;;;;5058207;28;20044;-74
2021/12/03 20:16:37;;;;;;;44.58;28.85;;;;;;;;;;5064510;28;20036;-74
2021/12/03 20:21:34;;;;;;;37.50;28.35;;;;;;;;;;5060112;28;20454;-73
2021/12/03 20:26:54;;;;;;;44.22;29.92;;;;;;;;;;5067953;28;20040;-73
2021/12/03 20:29:33;;;;;;;39.80;28.70;;;;;;;;;;5064825;28;20043;-73
2021/12/03 20:37:21;;;;;;;42.80;31.40;;;;;;;;;;5053943;28;20025;-73
2021/12/03 20:39:48;;;;;;;;;;;5.50;99.90;;;;;;5067765;28;20505;-74
2021/12/03 20:52:28;;;;;;;35.00;27.40;;;;;;;;;;5055872;28;20083;-74
2021/12/03 20:57:41;;;;;;;36.58;27.40;;;;;;;;;;5062310;28;20045;-74
2021/12/03 21:08:34;;;;;;;35.20;25.70;;;;;;;;;;5057859;28;20051;-74
2021/12/03 21:11:07;;;;;;;30.65;24.00;;;;;;;;;;5069764;28;20032;-74
2021/12/03 21:13:37;;;;;;;32.05;25.75;;;;;;;;;;5056681;28;20032;-73
2021/12/03 21:21:12;;;;;;;35.95;26.60;;;;;;;;;;5033896;28;20034;-73
2021/12/03 21:23:43;;;;;;;37.58;27.48;;;;;;;;;;5045670;28;20033;-72
2021/12/03 21:26:12;;;;;;;40.50;27.13;;;;;;;;;;5035787;28;20039;-73
2021/12/03 21:29:06;;;;;;;35.92;27.33;;;;;;;;;;5036416;28;20109;-73
2021/12/03 21:42:40;;;;;;;39.60;28.95;;;;;;;;;;5042637;28;20074;-73
2021/12/03 21:45:06;;;;;;;39.22;26.45;;;;;;;;;;5037305;28;20087;-73
2021/12/03 21:47:32;;;;;;;39.03;27.35;;;;;;;;;;5036121;28;20041;-75
2021/12/03 21:49:58;;;;;;;38.70;27.70;;;;;;;;;;5041052;28;20153;-75
2021/12/03 21:52:25;;;;;;;34.78;25.52;;;;;;;;;;5033775;28;20400;-75
2021/12/03 21:54:52;;;;;;;37.08;26.15;;;;;;;;;;5045971;28;20029;-77
2021/12/03 21:57:18;;;;;;;36.88;26.60;;;;;;;;;;5035685;28;20025;-76
2021/12/03 21:59:45;;;;;;;40.13;27.70;;;;;;;;;;5045311;28;20041;-78
2021/12/03 22:02:11;;;;;;;37.05;27.35;;;;;;;;;;5037397;28;20533;-77
2021/12/03 22:04:37;;;;;;;37.28;26.70;;;;;;;;;;5044054;28;20402;-77
2021/12/03 22:07:11;;;;;;;34.88;25.40;;;;;;;;;;5042019;28;20147;-76
2021/12/03 22:09:37;;;;;;;40.80;28.77;;;;;;;;;;5045082;28;20029;-75
2021/12/03 22:12:03;;;;;;;39.53;28.13;;;;;;;;;;5038437;28;20065;-75
2021/12/03 22:14:29;;;;;;;31.58;26.25;;;;;;;;;;5044855;28;20037;-75
2021/12/03 22:16:55;;;;;;;38.42;26.52;;;;;;;;;;5043109;28;20040;-76
2021/12/03 22:19:21;;;;;;;35.33;25.38;;;;;;;;;;5053465;28;20441;-76
2021/12/03 22:21:47;;;;;;;34.75;26.98;;;;;;;;;;5066028;28;20033;-75
2021/12/03 22:24:13;;;;;;;39.88;29.38;;;;;;;;;;5065654;28;20036;-75
2021/12/03 22:26:39;;;;;;;37.55;28.27;;;;;;;;;;5064598;28;20078;-75
2021/12/03 22:29:05;;;;;;;39.95;27.63;;;;;;;;;;5060964;28;20102;-76
2021/12/03 22:31:32;;;;;;;36.00;27.85;;;;;;;;;;5048783;28;20044;-75
2021/12/03 22:33:58;;;;;;;37.40;28.35;;;;;;;;;;5062887;28;20455;-75